Time;durP1;ratioP1;P1;durP2;ratioP2;P2;SDS_P1;SDS_P2;PMS_P1;PMS_P2;Temp;Humidity;BMP_temperature;BMP_pressure;BME280_temperature;BME280_humidity;BME280_pressure;Samples;Min_cycle;Max_cycle;Signal;HPM_P1;HPM_P2
2023/10/24 00:01:06;;;;;;;10.67;4.73;;;;;;;14.93;84.48;94832.31;5070038;28;20217;-44
2023/10/24 00:03:34;;;;;;;15.73;5.53;;;;;;;14.89;84.61;94834.38;5051162;28;20252;-44
2023/10/24 00:06:00;;;;;;;11.03;5.47;;;;;;;14.85;84.73;94838.25;5049510;28;20625;-43
2023/10/24 00:08:27;;;;;;;14.50;5.83;;;;;;;14.82;84.92;94841.16;5050035;28;20195;-44
2023/10/24 00:11:00;;;;;;;12.40;5.30;;;;;;;14.76;85.21;94832.28;5049851;28;20210;-44
2023/10/24 00:13:27;;;;;;;14.70;4.90;;;;;;;14.74;85.45;94833.44;5056116;28;20229;-44
2023/10/24 00:15:53;;;;;;;18.50;5.20;;;;;;;14.69;85.62;94831.34;5069766;28;20827;-49
2023/10/24 00:18:20;;;;;;;12.23;5.27;;;;;;;14.64;85.80;94825.88;5078434;28;20622;-43
2023/10/24 00:20:49;;;;;;;8.47;4.60;;;;;;;14.62;86.08;94825.19;5078440;28;20232;-43
2023/10/24 00:23:15;;;;;;;16.13;5.10;;;;;;;14.60;86.07;94826.34;5082594;28;20190;-43
2023/10/24 00:25:42;;;;;;;15.63;5.63;;;;;;;14.57;86.45;94829.22;5089269;28;20628;-43
2023/10/24 00:28:09;;;;;;;12.10;4.70;;;;;;;14.31;86.78;94794.91;5088735;28;20233;-43
2023/10/24 00:30:36;;;;;;;12.83;5.03;;;;;;;14.42;86.67;94809.25;5089288;28;20201;-44
2023/10/24 00:33:03;;;;;;;15.87;5.73;;;;;;;14.48;86.83;94823.22;5089103;28;20225;-44
2023/10/24 00:35:30;;;;;;;16.83;4.87;;;;;;;14.46;86.99;94828.50;5089216;28;20182;-43
2023/10/24 00:37:58;;;;;;;11.27;5.23;;;;;;;14.40;87.10;94820.63;5089889;28;20218;-43
2023/10/24 00:40:25;;;;;;;13.53;5.10;;;;;;;14.38;87.30;94822.53;5088282;28;20726;-45
2023/10/24 00:42:52;;;;;;;13.07;5.23;;;;;;;14.37;87.48;94826.09;5079667;28;20213;-43
2023/10/24 00:45:19;;;;;;;16.53;5.50;;;;;;;14.33;87.70;94833.31;5080886;28;20665;-45
2023/10/24 00:47:46;;;;;;;12.57;4.63;;;;;;;14.30;87.86;94826.72;5077860;28;20198;-42
2023/10/24 00:50:13;;;;;;;13.10;5.87;;;;;;;14.13;87.85;94799.34;5074820;28;20194;-45
2023/10/24 00:52:41;;;;;;;12.50;4.73;;;;;;;14.23;88.26;94820.59;5085576;28;20185;-44
2023/10/24 00:55:10;;;;;;;10.57;5.00;;;;;;;14.24;88.18;94834.25;5076770;28;20255;-43
2023/10/24 00:57:38;;;;;;;5.53;3.93;;;;;;;14.22;88.26;94826.72;5089151;28;20204;-44
2023/10/24 01:00:05;;;;;;;11.03;4.80;;;;;;;14.20;88.28;94825.25;5089633;28;20217;-43
2023/10/24 01:02:31;;;;;;;15.00;5.37;;;;;;;14.14;88.50;94818.16;5088898;28;20198;-44
2023/10/24 01:05:00;;;;;;;12.43;5.13;;;;;;;14.14;88.41;94823.31;5089296;28;20205;-44
2023/10/24 01:07:27;;;;;;;12.63;4.87;;;;;;;14.06;88.99;94821.50;5088850;28;20287;-43
2023/10/24 01:09:54;;;;;;;22.93;4.90;;;;;;;14.08;89.22;94817.03;5088935;28;20205;-44
2023/10/24 01:12:22;;;;;;;15.17;5.07;;;;;;;14.02;89.30;94821.00;5088778;28;20247;-43
2023/10/24 01:14:49;;;;;;;14.50;5.57;;;;;;;14.05;89.49;94827.63;5089044;28;20206;-43
2023/10/24 01:17:17;;;;;;;13.33;4.57;;;;;;;14.00;89.59;94820.38;5073972;28;20577;-46
2023/10/24 01:19:44;;;;;;;11.27;5.23;;;;;;;13.96;89.60;94818.28;5052731;28;20249;-43
2023/10/24 01:22:12;;;;;;;13.17;4.80;;;;;;;13.97;89.69;94820.66;5053059;28;20187;-44
2023/10/24 01:24:41;;;;;;;14.40;5.57;;;;;;;13.95;89.60;94816.66;5052963;28;20274;-43
2023/10/24 01:27:08;;;;;;;13.73;5.50;;;;;;;13.86;89.54;94802.13;5053233;28;20261;-44
2023/10/24 01:29:35;;;;;;;15.87;4.77;;;;;;;13.84;89.77;94804.88;5053412;28;20188;-43
2023/10/24 01:32:02;;;;;;;9.97;4.67;;;;;;;13.92;89.87;94817.75;5053084;28;20198;-45
2023/10/24 01:34:29;;;;;;;13.87;5.53;;;;;;;13.88;90.13;94819.03;5052475;28;20222;-43
2023/10/24 01:36:56;;;;;;;13.27;5.00;;;;;;;13.85;90.25;94810.81;5052926;28;20293;-42
2023/10/24 01:39:24;;;;;;;11.00;5.03;;;;;;;13.76;90.56;94797.13;5056454;28;20201;-43
2023/10/24 01:41:51;;;;;;;12.80;5.40;;;;;;;13.81;90.39;94812.88;5092658;28;20299;-43
2023/10/24 01:44:18;;;;;;;12.50;4.63;;;;;;;13.75;90.61;94811.75;5092543;28;20197;-44
2023/10/24 01:46:45;;;;;;;12.57;5.10;;;;;;;13.74;90.75;94807.56;5092503;28;20248;-43
2023/10/24 01:49:11;;;;;;;10.57;4.87;;;;;;;13.72;90.97;94816.38;5091859;28;20299;-43
2023/10/24 01:51:38;;;;;;;10.13;4.53;;;;;;;13.66;91.08;94806.72;5095413;28;20865;-44
2023/10/24 01:54:05;;;;;;;15.67;5.20;;;;;;;13.64;91.10;94809.44;5094718;28;20630;-43
2023/10/24 01:56:33;;;;;;;12.37;4.93;;;;;;;13.55;91.16;94794.94;5092791;28;20580;-44
2023/10/24 01:59:00;;;;;;;14.53;4.93;;;;;;;13.62;91.31;94808.00;5092571;28;20188;-44
2023/10/24 02:01:27;;;;;;;15.60;5.60;;;;;;;13.52;91.44;94800.41;5092175;28;20184;-43
2023/10/24 02:03:55;;;;;;;13.83;4.80;;;;;;;13.55;91.51;94821.44;5092036;28;20563;-43
2023/10/24 02:06:22;;;;;;;19.53;4.90;;;;;;;13.53;91.40;94810.53;5091914;28;20221;-44
2023/10/24 02:08:49;;;;;;;11.60;4.77;;;;;;;13.55;91.53;94803.44;5092084;28;20189;-43
2023/10/24 02:11:16;;;;;;;10.40;4.73;;;;;;;13.55;91.32;94807.78;5092349;28;20186;-44
2023/10/24 02:13:44;;;;;;;7.53;4.80;;;;;;;13.51;91.55;94803.91;5092139;28;20197;-44
2023/10/24 02:16:11;;;;;;;11.93;4.30;;;;;;;13.48;91.48;94806.81;5092035;28;20669;-43
2023/10/24 02:18:38;;;;;;;9.90;4.73;;;;;;;13.41;91.48;94798.09;5091989;28;20547;-43
2023/10/24 02:21:08;;;;;;;16.00;4.50;;;;;;;13.44;91.74;94801.16;5091276;28;20277;-43
2023/10/24 02:23:37;;;;;;;11.43;4.57;;;;;;;13.44;91.69;94806.31;5092188;28;20583;-43
2023/10/24 02:26:04;;;;;;;10.67;4.23;;;;;;;13.43;91.85;94804.69;5091854;28;20182;-44
2023/10/24 02:28:30;;;;;;;12.13;5.17;;;;;;;13.42;91.50;94812.53;5091070;28;20221;-48
2023/10/24 02:31:02;;;;;;;12.80;4.43;;;;;;;13.43;91.56;94807.25;5090640;28;20196;-44
2023/10/24 02:33:29;;;;;;;6.57;4.50;;;;;;;13.33;91.69;94793.69;5091565;28;20193;-43
2023/10/24 02:36:06;;;;;;;10.63;5.47;;;;;;;13.43;91.74;94807.25;5079573;28;20569;-43
2023/10/24 02:38:33;;;;;;;13.33;5.57;;;;;;;13.41;91.88;94811.72;5071331;28;20196;-43
2023/10/24 02:41:00;;;;;;;10.90;5.00;;;;;;;13.39;91.86;94812.88;5071168;28;20197;-44
2023/10/24 02:43:27;;;;;;;13.23;5.57;;;;;;;13.34;91.98;94815.84;5090023;28;20194;-43
2023/10/24 02:45:55;;;;;;;13.60;4.93;;;;;;;13.34;92.14;94817.63;5091633;28;20681;-43
2023/10/24 02:48:23;;;;;;;9.83;4.10;;;;;;;13.34;92.08;94818.44;5091291;28;20209;-44
2023/10/24 02:50:53;;;;;;;10.20;5.03;;;;;;;13.33;92.13;94823.72;5078421;28;20237;-44
2023/10/24 02:53:19;;;;;;;13.47;4.67;;;;;;;13.30;92.11;94809.44;5071901;28;20214;-43
2023/10/24 02:55:47;;;;;;;8.23;4.10;;;;;;;13.30;92.16;94815.38;5071090;28;20700;-43
2023/10/24 02:58:14;;;;;;;11.07;4.67;;;;;;;13.32;91.93;94827.25;5071220;28;20182;-44
2023/10/24 03:00:41;;;;;;;15.50;4.60;;;;;;;13.35;91.41;94826.97;5072929;28;20182;-44
2023/10/24 03:03:08;;;;;;;11.30;4.23;;;;;;;13.18;90.82;94802.91;5091243;28;20197;-43
2023/10/24 03:05:36;;;;;;;11.60;4.30;;;;;;;13.32;90.62;94829.81;5091031;28;20652;-42
2023/10/24 03:08:03;;;;;;;5.40;4.20;;;;;;;13.29;90.34;94833.50;5084727;28;20218;-44
2023/10/24 03:10:30;;;;;;;7.97;4.20;;;;;;;13.27;90.19;94838.78;5070868;28;20673;-44
2023/10/24 03:12:57;;;;;;;10.60;4.10;;;;;;;13.02;89.88;94796.69;5070990;28;20256;-43
2023/10/24 03:15:23;;;;;;;12.23;4.10;;;;;;;13.23;89.70;94837.47;5083512;28;20626;-44
2023/10/24 03:17:50;;;;;;;7.50;3.40;;;;;;;13.23;89.55;94841.81;5090543;28;20510;-44
2023/10/24 03:20:17;;;;;;;4.23;3.07;;;;;;;13.22;89.51;94841.00;5091171;28;20586;-43
2023/10/24 03:22:45;;;;;;;7.67;3.90;;;;;;;13.18;89.10;94844.78;5090694;28;20262;-43
2023/10/24 03:25:12;;;;;;;12.40;4.20;;;;;;;13.19;88.77;94848.16;5090932;28;20189;-44
2023/10/24 03:27:39;;;;;;;10.33;4.40;;;;;;;13.19;88.79;94850.72;5084572;28;20226;-43
2023/10/24 03:30:08;;;;;;;13.80;4.17;;;;;;;13.14;88.83;94858.09;5070640;28;20205;-44
2023/10/24 03:32:35;;;;;;;9.83;4.30;;;;;;;13.10;89.32;94859.34;5070236;28;20198;-44
2023/10/24 03:35:02;;;;;;;12.23;4.57;;;;;;;13.05;89.51;94862.34;5070458;28;20300;-43
2023/10/24 03:37:28;;;;;;;8.97;4.17;;;;;;;13.01;89.77;94858.47;5070216;28;20224;-43
2023/10/24 03:39:57;;;;;;;9.83;3.70;;;;;;;12.95;89.74;94856.47;5069576;28;20201;-43
2023/10/24 03:42:23;;;;;;;7.73;3.27;;;;;;;12.88;90.04;94846.00;5091330;28;20189;-45
2023/10/24 03:44:51;;;;;;;10.47;4.67;;;;;;;12.93;90.09;94855.81;5090603;28;20190;-43
2023/10/24 03:47:18;;;;;;;7.40;3.90;;;;;;;12.91;89.87;94862.84;5084629;28;20260;-43
2023/10/24 03:49:48;;;;;;;8.30;4.10;;;;;;;12.89;90.21;94862.22;5071386;28;20259;-44
2023/10/24 03:52:15;;;;;;;8.80;5.13;;;;;;;12.89;90.17;94857.06;5069552;28;20197;-43
2023/10/24 03:54:42;;;;;;;7.57;4.70;;;;;;;12.86;90.32;94859.94;5069515;28;20658;-43
2023/10/24 03:57:10;;;;;;;9.43;4.13;;;;;;;12.85;90.53;94861.69;5073635;28;20194;-44
2023/10/24 03:59:36;;;;;;;13.60;5.13;;;;;;;12.84;90.42;94861.84;5068561;28;20209;-43
2023/10/24 04:02:03;;;;;;;12.33;4.90;;;;;;;12.81;90.81;94865.50;5070048;28;20190;-43
2023/10/24 04:04:30;;;;;;;14.03;4.40;;;;;;;12.80;90.78;94867.28;5069342;28;20260;-44
2023/10/24 04:06:57;;;;;;;10.80;4.53;;;;;;;12.80;90.87;94861.34;5082294;28;20307;-42
2023/10/24 04:09:24;;;;;;;9.90;4.13;;;;;;;12.77;90.96;94862.41;5072010;28;20190;-43
2023/10/24 04:11:51;;;;;;;9.07;4.23;;;;;;;12.76;91.30;94860.00;5069755;28;20186;-44
2023/10/24 04:14:19;;;;;;;8.07;4.40;;;;;;;12.71;91.39;94862.22;5071045;28;20187;-43
2023/10/24 04:16:46;;;;;;;14.10;4.23;;;;;;;12.73;91.36;94870.56;5069756;28;20206;-44
2023/10/24 04:19:12;;;;;;;8.10;3.83;;;;;;;12.70;91.17;94865.75;5069864;28;20191;-44
2023/10/24 04:21:39;;;;;;;15.93;4.63;;;;;;;12.73;91.42;94865.44;5069308;28;20186;-43
2023/10/24 04:24:07;;;;;;;15.00;5.53;;;;;;;12.72;91.45;94872.31;5069557;28;20222;-45
2023/10/24 04:26:35;;;;;;;17.57;4.60;;;;;;;12.68;91.56;94868.44;5081171;28;20200;-44
2023/10/24 04:29:02;;;;;;;12.43;4.40;;;;;;;12.67;91.67;94869.41;5076500;28;20217;-45
2023/10/24 04:31:31;;;;;;;12.87;4.63;;;;;;;12.70;91.84;94881.94;5070850;28;20256;-43
2023/10/24 04:33:57;;;;;;;15.77;5.00;;;;;;;12.69;91.72;94875.16;5068997;28;20266;-43
2023/10/24 04:36:24;;;;;;;9.20;4.67;;;;;;;12.68;91.90;94881.25;5068977;28;20695;-44
2023/10/24 04:38:51;;;;;;;11.37;5.10;;;;;;;12.68;92.21;94893.28;5070640;28;20278;-42
2023/10/24 04:41:17;;;;;;;10.50;5.57;;;;;;;12.68;92.01;94894.09;5069013;28;20328;-42
2023/10/24 04:43:44;;;;;;;12.97;5.30;;;;;;;12.68;92.17;94898.41;5069105;28;20190;-44
2023/10/24 04:46:11;;;;;;;12.13;5.20;;;;;;;12.68;92.03;94894.09;5069273;28;20654;-45
2023/10/24 04:48:39;;;;;;;8.67;5.03;;;;;;;12.71;92.07;94895.56;5070452;28;20688;-42
2023/10/24 04:51:11;;;;;;;16.00;6.33;;;;;;;12.72;92.42;94903.13;5069431;28;20243;-44
2023/10/24 04:53:38;;;;;;;15.20;5.90;;;;;;;12.76;91.97;94909.56;5069873;28;20555;-42
2023/10/24 04:56:05;;;;;;;12.53;5.83;;;;;;;12.82;92.03;94903.03;5076895;28;20181;-43
2023/10/24 04:58:32;;;;;;;18.37;6.33;;;;;;;12.84;91.67;94901.16;5080848;28;20189;-43
2023/10/24 05:00:59;;;;;;;14.07;5.47;;;;;;;12.90;91.36;94910.00;5089476;28;20190;-44
2023/10/24 05:03:26;;;;;;;15.07;5.93;;;;;;;12.93;91.24;94910.53;5089393;28;20198;-46
2023/10/24 05:05:55;;;;;;;16.43;6.10;;;;;;;12.97;90.89;94913.63;5089308;28;20271;-44
2023/10/24 05:08:21;;;;;;;14.23;8.13;;;;;;;12.99;91.18;94917.63;5088374;28;20247;-44
2023/10/24 05:10:49;;;;;;;21.00;8.33;;;;;;;12.98;91.32;94923.72;5079222;28;20192;-44
2023/10/24 05:13:16;;;;;;;17.53;8.20;;;;;;;12.96;91.54;94923.09;5072936;28;20646;-44
2023/10/24 05:15:43;;;;;;;22.80;9.37;;;;;;;13.01;91.43;94925.22;5079174;28;20178;-44
2023/10/24 05:18:11;;;;;;;24.27;8.90;;;;;;;13.02;91.53;94927.63;5098815;28;20264;-44
2023/10/24 05:20:38;;;;;;;17.50;8.13;;;;;;;13.05;91.63;94935.03;5089697;28;20274;-42
2023/10/24 05:23:06;;;;;;;17.10;8.13;;;;;;;13.07;91.76;94934.88;5073948;28;20518;-42
2023/10/24 05:25:33;;;;;;;22.83;9.20;;;;;;;13.14;92.39;94940.25;5069408;28;20191;-43
2023/10/24 05:28:00;;;;;;;29.60;8.40;;;;;;;13.13;92.23;94936.88;5068544;28;20236;-42
2023/10/24 05:30:27;;;;;;;25.50;7.67;;;;;;;13.14;92.36;94937.69;5069039;28;20254;-42
2023/10/24 05:32:54;;;;;;;18.70;7.67;;;;;;;13.18;91.88;94933.88;5068681;28;20190;-43
2023/10/24 05:35:21;;;;;;;22.07;8.07;;;;;;;13.28;91.47;94937.19;5068580;28;20225;-44
2023/10/24 05:37:48;;;;;;;20.50;7.43;;;;;;;13.37;91.06;94930.34;5068567;28;20186;-43
2023/10/24 05:40:16;;;;;;;15.07;7.90;;;;;;;13.44;90.66;94933.94;5068687;28;20203;-43
2023/10/24 05:42:44;;;;;;;24.87;8.60;;;;;;;13.54;90.35;94943.16;5069846;28;20656;-44
2023/10/24 05:45:11;;;;;;;23.30;8.00;;;;;;;13.60;90.35;94944.34;5068605;28;20174;-45
2023/10/24 05:47:38;;;;;;;17.97;7.17;;;;;;;13.68;89.92;94948.72;5056235;28;20214;-45
2023/10/24 05:50:05;;;;;;;18.53;8.00;;;;;;;13.77;89.69;94950.38;5068593;28;20205;-42
2023/10/24 05:52:32;;;;;;;15.73;7.63;;;;;;;13.83;89.08;94944.66;5048220;28;20190;-43
2023/10/24 05:54:59;;;;;;;19.33;7.73;;;;;;;13.91;89.00;94947.28;5048592;28;20183;-43
2023/10/24 05:57:29;;;;;;;16.20;6.97;;;;;;;14.03;88.46;94948.66;5048706;28;20187;-43
2023/10/24 05:59:56;;;;;;;21.13;7.83;;;;;;;14.12;88.21;94940.94;5048267;28;20578;-43
2023/10/24 06:02:23;;;;;;;22.30;7.03;;;;;;;14.22;87.83;94939.88;5048644;28;20191;-43
2023/10/24 06:04:49;;;;;;;22.83;8.23;;;;;;;14.18;87.63;94918.00;5049114;28;20194;-42
2023/10/24 06:07:16;;;;;;;29.53;9.07;;;;;;;14.37;87.41;94936.72;5051900;28;20187;-43
2023/10/24 06:09:43;;;;;;;21.57;7.10;;;;;;;14.48;86.81;94942.44;5052026;28;20191;-43
2023/10/24 06:12:10;;;;;;;21.23;7.90;;;;;;;14.68;86.31;94940.41;5051961;28;20198;-42
2023/10/24 06:14:38;;;;;;;20.63;7.83;;;;;;;14.84;85.45;94946.56;5052128;28;20195;-44
2023/10/24 06:17:05;;;;;;;22.80;7.97;;;;;;;15.19;83.49;94948.06;5060904;28;20194;-44
2023/10/24 06:19:33;;;;;;;27.07;7.70;;;;;;;15.42;82.55;94949.06;5068295;28;20206;-43
2023/10/24 06:22:00;;;;;;;20.30;8.80;;;;;;;15.68;81.50;94950.69;5070534;28;20270;-42
2023/10/24 06:24:27;;;;;;;31.87;12.80;;;;;;;15.85;80.78;94952.28;5071360;28;20201;-43
2023/10/24 06:26:54;;;;;;;29.73;9.60;;;;;;;15.97;80.17;94940.63;5070983;28;20234;-43
2023/10/24 06:29:20;;;;;;;29.23;9.73;;;;;;;16.12;79.91;94947.72;5069608;28;20202;-42
2023/10/24 06:31:49;;;;;;;21.60;8.37;;;;;;;16.32;79.31;94948.97;5070826;28;20202;-43
2023/10/24 06:34:15;;;;;;;37.33;9.43;;;;;;;16.45;78.64;94945.81;5072676;28;20195;-43
2023/10/24 06:36:42;;;;;;;27.70;10.17;;;;;;;16.63;78.17;94955.94;5071710;28;20194;-42
2023/10/24 06:39:10;;;;;;;19.97;9.23;;;;;;;16.80;77.36;94955.72;5073404;28;20248;-42
2023/10/24 06:41:37;;;;;;;28.83;10.30;;;;;;;16.98;76.24;94950.28;5068501;28;20191;-43
2023/10/24 06:44:04;;;;;;;31.50;8.90;;;;;;;17.11;75.60;94951.50;5072552;28;20182;-45
2023/10/24 06:46:31;;;;;;;25.20;9.77;;;;;;;17.10;75.50;94936.97;5071933;28;20206;-46
2023/10/24 06:48:59;;;;;;;25.03;9.30;;;;;;;17.27;74.96;94947.03;5070980;28;20232;-43
2023/10/24 06:51:26;;;;;;;25.67;10.40;;;;;;;17.37;75.07;94949.38;5071129;28;20221;-49
2023/10/24 06:53:52;;;;;;;21.33;9.13;;;;;;;17.48;74.45;94945.56;5070803;28;20193;-44
2023/10/24 06:56:19;;;;;;;24.70;9.30;;;;;;;17.65;74.07;94946.25;5070920;28;20255;-43
2023/10/24 06:58:46;;;;;;;31.60;8.90;;;;;;;17.82;73.08;94942.56;5070694;28;20209;-44
2023/10/24 07:01:13;;;;;;;20.67;9.53;;;;;;;17.95;72.66;94936.78;5071394;28;20193;-43
2023/10/24 07:03:39;;;;;;;23.87;10.33;;;;;;;17.96;72.13;94926.28;5070814;28;20194;-43
2023/10/24 07:06:10;;;;;;;22.47;10.30;;;;;;;18.22;71.10;94941.38;5071597;28;20191;-44
2023/10/24 07:08:38;;;;;;;27.80;11.17;;;;;;;18.36;70.58;94934.59;5070227;28;20680;-44
2023/10/24 07:11:05;;;;;;;26.13;9.07;;;;;;;18.55;69.67;94928.84;5073237;28;20261;-44
2023/10/24 07:13:31;;;;;;;22.03;8.53;;;;;;;18.75;68.63;94929.09;5069987;28;20665;-44
2023/10/24 07:15:58;;;;;;;22.83;10.27;;;;;;;18.95;68.05;94918.13;5070486;28;20190;-42
2023/10/24 07:18:25;;;;;;;20.97;9.07;;;;;;;19.22;67.40;94929.59;5070619;28;20265;-43
2023/10/24 07:20:58;;;;;;;20.90;10.00;;;;;;;19.35;67.18;94928.91;5071358;28;20190;-43
2023/10/24 07:23:26;;;;;;;27.50;10.20;;;;;;;19.51;66.46;94916.47;5068753;28;20669;-43
2023/10/24 07:25:57;;;;;;;21.47;10.33;;;;;;;19.80;65.59;94925.13;5072279;28;20201;-44
2023/10/24 07:28:24;;;;;;;25.83;10.03;;;;;;;19.96;65.33;94913.66;5071177;28;20319;-42
2023/10/24 07:30:54;;;;;;;21.02;9.65;;;;;;;20.10;64.88;94917.13;5070747;28;20201;-45
2023/10/24 07:33:21;;;;;;;26.02;9.45;;;;;;;20.23;64.12;94914.59;5070269;28;20582;-45
2023/10/24 07:35:50;;;;;;;19.42;9.60;;;;;;;20.32;63.11;94921.25;5069316;28;20191;-43
2023/10/24 07:38:17;;;;;;;25.35;9.05;;;;;;;20.39;63.11;94922.09;5069850;28;20194;-44
2023/10/24 07:40:45;;;;;;;21.65;10.15;;;;;;;20.40;62.62;94917.69;5069643;28;20186;-45
2023/10/24 07:43:12;;;;;;;21.23;9.25;;;;;;;20.36;62.74;94908.69;5070156;28;20387;-47
2023/10/24 07:45:39;;;;;;;28.30;9.65;;;;;;;20.41;62.77;94909.69;5069656;28;20221;-43
2023/10/24 07:48:06;;;;;;;19.13;9.35;;;;;;;20.55;61.56;94910.56;5069171;28;20668;-44
2023/10/24 07:50:33;;;;;;;31.00;9.07;;;;;;;20.56;61.67;94914.81;5068778;28;20222;-45
2023/10/24 07:53:00;;;;;;;21.83;8.55;;;;;;;20.63;61.09;94907.81;5068988;28;20201;-43
2023/10/24 07:55:27;;;;;;;21.33;9.65;;;;;;;20.47;61.17;94911.53;5069343;28;20190;-44
2023/10/24 07:57:55;;;;;;;16.27;8.60;;;;;;;20.39;61.40;94909.09;5069003;28;20175;-44
2023/10/24 08:00:22;;;;;;;24.48;9.52;;;;;;;20.29;61.58;94899.06;5069170;28;20186;-44
2023/10/24 08:02:49;;;;;;;20.98;8.38;;;;;;;20.32;61.66;94902.25;5068929;28;20254;-45
2023/10/24 08:05:16;;;;;;;23.35;8.57;;;;;;;20.28;61.47;94901.84;5070703;28;20190;-45
2023/10/24 08:07:42;;;;;;;20.77;8.77;;;;;;;20.16;61.42;94883.38;5069248;28;20240;-45
2023/10/24 08:10:10;;;;;;;24.23;10.27;;;;;;;20.21;61.54;94903.63;5069089;28;20618;-45
2023/10/24 08:12:37;;;;;;;29.60;10.85;;;;;;;20.04;61.84;94888.34;5068574;28;20186;-44
2023/10/24 08:15:06;;;;;;;28.00;10.77;;;;;;;20.07;62.29;94892.34;5068916;28;20194;-44
2023/10/24 08:17:33;;;;;;;25.15;10.70;;;;;;;20.05;61.96;94891.75;5068583;28;20202;-43
2023/10/24 08:20:00;;;;;;;20.50;9.68;;;;;;;20.09;62.05;94902.53;5069748;28;20190;-45
2023/10/24 08:22:27;;;;;;;26.60;10.43;;;;;;;20.00;62.20;94897.50;5068861;28;20187;-43
2023/10/24 08:24:53;;;;;;;22.73;10.18;;;;;;;20.03;62.39;94893.69;5069069;28;20276;-43
2023/10/24 08:27:20;;;;;;;29.77;9.60;;;;;;;20.07;62.21;94884.53;5067804;28;20233;-44
2023/10/24 08:29:47;;;;;;;23.55;8.73;;;;;;;20.07;62.15;94884.53;5068523;28;20209;-45
2023/10/24 08:32:15;;;;;;;15.85;7.88;;;;;;;20.10;61.79;94881.56;5068376;28;20200;-44
2023/10/24 08:34:42;;;;;;;13.07;7.10;;;;;;;20.03;61.73;94873.75;5069681;28;20202;-44
2023/10/24 08:37:09;;;;;;;23.73;7.60;;;;;;;20.10;60.63;94868.59;5071096;28;20233;-43
2023/10/24 08:39:36;;;;;;;18.20;7.38;;;;;;;20.22;60.48;94874.06;5069241;28;20200;-43
2023/10/24 08:42:03;;;;;;;19.80;7.38;;;;;;;20.26;60.38;94867.47;5069561;28;20590;-44
2023/10/24 08:44:31;;;;;;;17.75;7.82;;;;;;;20.31;60.33;94867.69;5069125;28;20181;-44
2023/10/24 08:46:58;;;;;;;23.48;8.20;;;;;;;20.32;60.20;94863.28;5069012;28;20597;-45
2023/10/24 08:49:27;;;;;;;17.67;6.82;;;;;;;20.35;59.94;94853.31;5068288;28;20327;-44
2023/10/24 08:51:55;;;;;;;15.75;7.15;;;;;;;20.49;59.38;94860.19;5069118;28;20652;-43
2023/10/24 08:54:21;;;;;;;14.95;6.93;;;;;;;20.62;58.92;94856.03;5069466;28;20209;-44
2023/10/24 08:56:49;;;;;;;16.80;6.38;;;;;;;20.69;59.05;94860.28;5069613;28;20179;-43
2023/10/24 08:59:18;;;;;;;14.38;6.28;;;;;;;20.71;58.99;94853.06;5068317;28;20205;-44
2023/10/24 09:01:46;;;;;;;14.32;6.13;;;;;;;20.67;58.75;94838.06;5068484;28;20670;-45
2023/10/24 09:04:13;;;;;;;17.38;6.40;;;;;;;20.75;58.24;94840.47;5068264;28;20200;-43
2023/10/24 09:06:41;;;;;;;17.20;6.45;;;;;;;20.89;58.37;94842.09;5068395;28;20194;-44
2023/10/24 09:09:08;;;;;;;17.17;6.78;;;;;;;20.99;57.59;94837.34;5069055;28;20233;-45
2023/10/24 09:11:55;;;;;;;13.80;6.30;;;;;;;21.03;58.07;94838.53;5069381;28;20272;-43
2023/10/24 09:14:23;;;;;;;20.67;7.05;;;;;;;21.04;58.30;94831.53;5067049;28;20681;-43
2023/10/24 09:16:56;;;;;;;12.98;6.25;;;;;;;21.10;57.85;94824.72;5068718;28;20191;-44
2023/10/24 09:19:23;;;;;;;17.52;7.15;;;;;;;21.13;57.71;94832.13;5067801;28;20205;-44
2023/10/24 09:21:52;;;;;;;19.88;6.30;;;;;;;21.17;57.83;94815.13;5067703;28;20197;-43
2023/10/24 09:24:20;;;;;;;18.38;6.93;;;;;;;21.27;57.71;94823.34;5067953;28;20581;-45
2023/10/24 09:26:52;;;;;;;17.02;7.25;;;;;;;21.29;57.24;94818.75;5067878;28;20673;-44
2023/10/24 09:29:20;;;;;;;18.90;6.50;;;;;;;21.38;57.33;94819.38;5067190;28;20234;-44
2023/10/24 09:31:47;;;;;;;16.45;6.18;;;;;;;21.51;56.74;94824.56;5068849;28;20206;-45
2023/10/24 09:34:15;;;;;;;16.67;6.90;;;;;;;21.51;56.34;94807.13;5069381;28;20274;-44
2023/10/24 09:36:42;;;;;;;16.80;7.57;;;;;;;21.71;55.44;94817.50;5071767;28;20194;-46
2023/10/24 09:39:11;;;;;;;14.77;6.93;;;;;;;21.73;56.04;94825.13;5079688;28;20202;-45
2023/10/24 09:41:39;;;;;;;19.35;7.25;;;;;;;21.86;55.41;94813.88;5079240;28;20337;-45
2023/10/24 09:44:07;;;;;;;17.45;7.28;;;;;;;21.80;55.37;94815.47;5073950;28;20210;-43
2023/10/24 09:46:35;;;;;;;16.20;6.47;;;;;;;21.81;55.72;94808.50;5072381;28;20205;-44
2023/10/24 09:49:03;;;;;;;19.48;7.10;;;;;;;21.89;55.67;94811.69;5071771;28;20279;-44
2023/10/24 09:51:31;;;;;;;20.00;5.95;;;;;;;22.05;54.22;94813.00;5072299;28;20187;-42
2023/10/24 09:53:58;;;;;;;12.63;6.40;;;;;;;22.07;54.09;94807.63;5071487;28;20206;-45
2023/10/24 09:56:27;;;;;;;20.13;7.95;;;;;;;22.09;54.34;94800.38;5071387;28;20179;-44
2023/10/24 09:58:55;;;;;;;18.77;6.78;;;;;;;22.18;54.45;94804.38;5071677;28;20218;-44
2023/10/24 10:01:22;;;;;;;21.70;7.90;;;;;;;22.31;54.33;94793.91;5073316;28;20182;-45
2023/10/24 10:03:50;;;;;;;19.30;7.32;;;;;;;22.34;54.16;94793.50;5071414;28;20236;-45
2023/10/24 10:06:18;;;;;;;15.88;6.72;;;;;;;22.41;53.64;94783.84;5070969;28;20186;-45
2023/10/24 10:08:48;;;;;;;24.55;8.05;;;;;;;22.53;53.24;94792.56;5070007;28;20314;-45
2023/10/24 10:11:16;;;;;;;15.63;7.45;;;;;;;22.60;53.47;94794.38;5070571;28;20189;-45
2023/10/24 10:13:53;;;;;;;15.38;7.55;;;;;;;22.60;53.77;94789.94;5071139;28;20185;-44
2023/10/24 10:16:40;;;;;;;25.10;8.90;;;;;;;22.69;53.43;94780.88;5070371;28;20251;-44
2023/10/24 10:19:29;;;;;;;23.17;8.32;;;;;;;22.68;53.69;94775.88;5070821;28;20255;-45
2023/10/24 10:22:12;;;;;;;15.73;8.52;;;;;;;22.70;53.17;94774.63;5068878;28;20198;-44
2023/10/24 10:25:13;;;;;;;26.65;9.25;;;;;;;22.76;52.68;94765.19;5070558;28;20197;-45
2023/10/24 10:27:53;;;;;;;24.90;8.55;;;;;;;22.66;53.09;94750.00;5007000;28;20220;-44
2023/10/24 10:30:30;;;;;;;20.08;7.95;;;;;;;22.83;53.04;94765.13;5008487;28;20370;-45
2023/10/24 10:33:11;;;;;;;19.55;9.18;;;;;;;22.83;53.17;94758.09;5008395;28;20232;-44
2023/10/24 10:35:48;;;;;;;25.45;7.95;;;;;;;22.87;52.83;94758.47;5006749;28;20258;-44
2023/10/24 10:38:25;;;;;;;26.58;9.07;;;;;;;22.86;53.00;94752.47;5008343;28;20302;-44
2023/10/24 10:40:52;;;;;;;25.30;8.65;;;;;;;22.89;52.89;94740.81;5009351;28;20211;-43
2023/10/24 10:43:39;;;;;;;20.90;8.80;;;;;;;22.95;52.64;94738.19;5008157;28;20677;-43
2023/10/24 10:46:20;;;;;;;27.02;7.70;;;;;;;22.99;52.59;94733.34;4960519;28;20201;-43
2023/10/24 10:48:49;;;;;;;27.25;8.45;;;;;;;23.07;52.32;94734.88;4961075;28;20196;-43
2023/10/24 10:51:20;;;;;;;22.88;7.57;;;;;;;23.14;52.36;94736.41;4963098;28;20220;-44
2023/10/24 10:53:50;;;;;;;20.85;7.82;;;;;;;23.21;52.06;94725.91;4960539;28;20197;-44
2023/10/24 10:56:20;;;;;;;19.92;7.53;;;;;;;23.26;51.43;94723.47;4965469;28;20194;-42
2023/10/24 10:59:10;;;;;;;42.55;8.77;;;;;;;23.15;51.59;94696.28;4955345;28;20200;-43
2023/10/24 11:01:46;;;;;;;29.05;7.60;;;;;;;23.35;51.38;94716.16;4951002;28;20194;-44
2023/10/24 11:04:14;;;;;;;22.92;6.95;;;;;;;23.41;51.36;94713.47;4971372;28;20572;-45
2023/10/24 11:06:50;;;;;;;17.83;6.45;;;;;;;23.06;50.90;94645.41;5008571;28;20676;-43
2023/10/24 11:09:17;;;;;;;18.05;6.65;;;;;;;23.50;51.14;94698.34;5011416;28;20215;-44
2023/10/24 11:11:44;;;;;;;16.60;6.05;;;;;;;23.52;50.66;94698.91;5008153;28;20192;-43
2023/10/24 11:14:15;;;;;;;26.10;6.68;;;;;;;23.46;50.05;94671.88;5008500;28;20688;-43
2023/10/24 11:16:45;;;;;;;15.45;6.53;;;;;;;23.52;50.49;94685.84;5009928;28;20603;-44
2023/10/24 11:19:19;;;;;;;19.65;6.60;;;;;;;23.57;50.25;94685.97;5008446;28;20287;-44
2023/10/24 11:21:47;;;;;;;24.00;6.32;;;;;;;23.54;50.39;94674.19;5008067;28;20648;-44
2023/10/24 11:24:17;;;;;;;17.30;5.60;;;;;;;23.56;50.75;94668.72;5066942;28;20203;-45
2023/10/24 11:26:44;;;;;;;19.58;6.43;;;;;;;23.13;50.59;94593.13;5068454;28;20253;-44
2023/10/24 11:29:13;;;;;;;14.88;6.32;;;;;;;23.64;50.59;94672.88;5069478;28;20291;-44